Time;durP1;ratioP1;P1;durP2;ratioP2;P2;SDS_P1;SDS_P2;PMS_P1;PMS_P2;Temp;Humidity;BMP_temperature;BMP_pressure;BME280_temperature;BME280_humidity;BME280_pressure;Samples;Min_cycle;Max_cycle;Signal;HPM_P1;HPM_P2
2023/12/07 00:01:03;;;;;;;20.98;10.85;;;;;;;5.61;68.81;102061.41;5010868;28;20041;-45
2023/12/07 00:03:28;;;;;;;19.30;9.23;;;;;;;5.61;69.01;102071.75;5010877;28;20029;-46
2023/12/07 00:05:53;;;;;;;21.23;9.52;;;;;;;5.56;68.72;102072.31;5009778;28;20408;-45
2023/12/07 00:08:19;;;;;;;21.23;10.75;;;;;;;5.41;69.01;102069.84;5010183;28;20377;-44
2023/12/07 00:10:44;;;;;;;19.50;10.30;;;;;;;5.53;69.07;102070.47;5009966;28;20034;-47
2023/12/07 00:13:09;;;;;;;22.20;10.18;;;;;;;5.49;68.80;102068.53;5009940;28;20103;-44
2023/12/07 00:15:35;;;;;;;24.70;11.25;;;;;;;5.43;69.06;102067.34;5010264;28;20493;-44
2023/12/07 00:18:00;;;;;;;21.55;10.82;;;;;;;5.41;68.79;102064.66;5010073;28;20068;-45
2023/12/07 00:20:26;;;;;;;20.10;10.07;;;;;;;5.40;68.95;102059.41;5010598;28;20041;-44
2023/12/07 00:22:51;;;;;;;22.77;10.27;;;;;;;5.44;68.97;102063.91;5009967;28;20034;-44
2023/12/07 00:25:16;;;;;;;19.75;10.18;;;;;;;5.44;68.72;102062.22;5010649;28;20026;-44
2023/12/07 00:27:42;;;;;;;19.52;10.02;;;;;;;5.41;68.90;102056.91;5011146;28;20045;-46
2023/12/07 00:30:08;;;;;;;21.17;10.15;;;;;;;5.43;68.96;102062.16;5010592;28;20030;-43
2023/12/07 00:32:34;;;;;;;21.73;9.90;;;;;;;5.42;68.67;102055.22;5010764;28;20661;-44
2023/12/07 00:34:59;;;;;;;22.17;9.65;;;;;;;5.39;69.11;102055.03;5010045;28;20037;-47
2023/12/07 00:37:24;;;;;;;21.13;10.75;;;;;;;5.18;69.17;102052.22;5010270;28;20117;-45
2023/12/07 00:39:50;;;;;;;20.50;10.10;;;;;;;5.20;68.82;102054.06;5009933;28;20456;-45
2023/12/07 00:42:15;;;;;;;20.05;10.25;;;;;;;5.19;69.62;102052.28;5010149;28;20045;-49
2023/12/07 00:44:41;;;;;;;22.27;9.93;;;;;;;5.21;68.99;102045.50;5009970;28;20072;-47
2023/12/07 00:47:06;;;;;;;21.38;10.30;;;;;;;5.29;69.23;102049.38;5009697;28;20042;-44
2023/12/07 00:49:32;;;;;;;20.88;10.43;;;;;;;5.23;69.92;102046.47;5010115;28;20026;-49
2023/12/07 00:51:58;;;;;;;19.92;10.23;;;;;;;5.30;69.27;102051.19;5008173;28;20092;-50
2023/12/07 00:54:23;;;;;;;20.55;10.27;;;;;;;5.31;69.07;102057.19;5011055;28;20092;-45
2023/12/07 00:56:48;;;;;;;22.95;10.32;;;;;;;5.28;69.19;102051.88;5010436;28;20041;-45
2023/12/07 00:59:14;;;;;;;21.33;10.15;;;;;;;5.30;69.27;102051.19;5010513;28;20065;-45
2023/12/07 01:01:40;;;;;;;19.15;9.75;;;;;;;5.27;69.27;102043.25;5011851;28;20034;-44
2023/12/07 01:04:05;;;;;;;22.13;10.15;;;;;;;5.19;69.49;102048.78;5010811;28;20049;-46
2023/12/07 01:06:31;;;;;;;19.00;9.60;;;;;;;5.10;69.05;102053.50;5010515;28;20030;-50
2023/12/07 01:08:57;;;;;;;18.58;9.90;;;;;;;5.23;68.89;102048.16;5009751;28;20038;-51
2023/12/07 01:11:22;;;;;;;22.35;9.45;;;;;;;5.25;68.71;102050.00;5010630;28;20549;-50
2023/12/07 01:13:48;;;;;;;17.52;9.02;;;;;;;5.27;69.27;102050.09;5011773;28;20520;-45
2023/12/07 01:16:13;;;;;;;20.63;9.88;;;;;;;5.20;69.37;102051.47;5013268;28;20061;-47
2023/12/07 01:18:38;;;;;;;17.70;9.65;;;;;;;5.19;69.48;102053.97;5013440;28;20068;-44
2023/12/07 01:21:04;;;;;;;16.95;8.88;;;;;;;5.21;68.88;102050.66;5012660;28;20405;-46
2023/12/07 01:23:29;;;;;;;17.17;9.57;;;;;;;5.21;69.11;102050.66;5013473;28;20029;-46
2023/12/07 01:25:54;;;;;;;18.30;9.45;;;;;;;5.23;68.84;102064.56;5013177;28;20034;-44
2023/12/07 01:28:20;;;;;;;17.67;9.23;;;;;;;5.34;68.95;102059.06;5013411;28;20057;-44
2023/12/07 01:30:45;;;;;;;19.73;9.93;;;;;;;5.44;69.57;102064.81;5011938;28;20029;-44
2023/12/07 01:33:10;;;;;;;21.40;9.48;;;;;;;5.51;69.37;102063.44;5011623;28;20042;-44
2023/12/07 01:35:36;;;;;;;19.52;9.60;;;;;;;5.60;69.61;102059.66;5013333;28;20033;-47
2023/12/07 01:38:01;;;;;;;18.42;9.73;;;;;;;5.66;69.87;102053.91;5013485;28;20038;-46
2023/12/07 01:40:26;;;;;;;20.00;10.20;;;;;;;5.69;69.91;102057.53;5013344;28;20045;-45
2023/12/07 01:42:52;;;;;;;20.63;10.32;;;;;;;5.86;70.34;102054.91;5012567;28;20041;-44
2023/12/07 01:45:19;;;;;;;21.58;10.45;;;;;;;5.92;70.33;102053.56;5013159;28;20501;-49
2023/12/07 01:47:46;;;;;;;18.60;9.85;;;;;;;6.07;70.47;102053.44;5012978;28;20034;-48
2023/12/07 01:50:16;;;;;;;21.48;9.88;;;;;;;6.17;70.48;102052.19;5012581;28;20061;-43
2023/12/07 01:52:47;;;;;;;20.88;10.63;;;;;;;6.23;70.35;102057.69;5014003;28;20645;-44
2023/12/07 01:55:14;;;;;;;22.98;10.68;;;;;;;6.28;70.40;102057.09;5014100;28;20061;-48
2023/12/07 01:57:41;;;;;;;21.95;10.25;;;;;;;6.32;70.13;102046.09;5013214;28;20060;-45
2023/12/07 02:00:07;;;;;;;22.15;10.82;;;;;;;6.36;70.58;102044.53;5012441;28;20404;-48
2023/12/07 02:02:33;;;;;;;20.45;10.35;;;;;;;6.38;70.58;102054.16;5012496;28;20038;-46
2023/12/07 02:04:58;;;;;;;22.58;11.30;;;;;;;6.40;70.57;102052.50;5011818;28;20554;-44
2023/12/07 02:07:24;;;;;;;22.92;11.52;;;;;;;6.42;70.99;102048.31;5012648;28;20022;-46
2023/12/07 02:09:49;;;;;;;22.65;11.15;;;;;;;6.50;70.62;102043.50;5011970;28;20069;-46
2023/12/07 02:12:15;;;;;;;22.58;11.52;;;;;;;6.48;70.63;102050.31;5012292;28;20037;-43
2023/12/07 02:14:41;;;;;;;22.00;11.27;;;;;;;6.50;70.71;102049.56;5012561;28;20099;-44
2023/12/07 02:17:24;;;;;;;22.45;12.30;;;;;;;6.53;70.75;102045.38;5012045;28;20038;-43
2023/12/07 02:19:56;;;;;;;23.83;11.93;;;;;;;6.53;71.40;102042.78;5012018;28;20416;-50
2023/12/07 02:22:29;;;;;;;26.88;12.63;;;;;;;6.57;70.81;102047.28;5011641;28;20488;-47
2023/12/07 02:25:14;;;;;;;24.85;12.00;;;;;;;6.57;70.57;102047.28;5011592;28;20034;-49
2023/12/07 02:27:39;;;;;;;;;;;;;;;6.59;71.32;102056.03;5012419;28;20577;-46
2023/12/07 02:30:06;;;;;;;22.92;10.88;;;;;;;6.58;71.14;102051.66;5011537;28;19913;-47
2023/12/07 02:32:32;;;;;;;23.48;11.98;;;;;;;6.62;70.84;102053.56;5012302;28;20038;-45
2023/12/07 02:34:57;;;;;;;22.05;11.95;;;;;;;6.56;70.92;102054.16;5011412;28;20048;-46
2023/12/07 02:37:27;;;;;;;24.30;11.90;;;;;;;6.56;70.53;102054.16;5012248;28;20061;-47
2023/12/07 02:39:53;;;;;;;22.15;11.73;;;;;;;6.49;71.18;102052.97;5011317;28;20045;-48
2023/12/07 02:42:20;;;;;;;22.75;12.20;;;;;;;6.53;70.91;102053.16;5011817;28;20399;-46
2023/12/07 02:44:46;;;;;;;23.13;11.90;;;;;;;6.49;71.15;102047.78;5012143;28;20088;-44
2023/12/07 02:47:11;;;;;;;23.73;12.43;;;;;;;6.48;70.90;102048.59;5011532;28;20401;-45
2023/12/07 02:49:36;;;;;;;23.17;12.02;;;;;;;6.40;71.43;102057.69;5011973;28;20495;-46
2023/12/07 02:52:02;;;;;;;23.52;12.10;;;;;;;6.39;70.94;102055.94;5011422;28;20526;-45
2023/12/07 02:54:27;;;;;;;22.13;11.55;;;;;;;6.42;70.60;102062.97;5011977;28;20033;-46
2023/12/07 02:56:52;;;;;;;21.42;11.20;;;;;;;6.35;70.59;102051.41;5011173;28;20038;-44
2023/12/07 02:59:17;;;;;;;23.33;11.70;;;;;;;6.34;71.07;102061.72;5011984;28;20084;-43
2023/12/07 03:01:43;;;;;;;24.75;12.15;;;;;;;6.27;71.74;102064.81;5012568;28;20032;-43
2023/12/07 03:04:08;;;;;;;24.35;11.60;;;;;;;6.32;71.78;102059.03;5011600;28;20030;-46
2023/12/07 03:06:33;;;;;;;23.90;12.48;;;;;;;6.29;71.35;102068.34;5012248;28;20117;-45
2023/12/07 03:08:59;;;;;;;23.10;12.70;;;;;;;6.32;71.24;102061.63;5012241;28;20038;-45
2023/12/07 03:11:24;;;;;;;28.38;12.77;;;;;;;6.35;71.26;102060.88;5011059;28;20485;-46
2023/12/07 03:13:49;;;;;;;24.80;12.88;;;;;;;6.27;71.28;102068.28;5010607;28;20056;-49
2023/12/07 03:16:15;;;;;;;25.33;13.02;;;;;;;6.35;71.16;102066.94;5011068;28;20142;-47
2023/12/07 03:18:40;;;;;;;26.05;13.20;;;;;;;6.38;71.15;102056.75;5011899;28;20044;-47
2023/12/07 03:21:06;;;;;;;27.50;13.65;;;;;;;6.38;70.97;102059.34;5010566;28;20213;-46
2023/12/07 03:23:31;;;;;;;28.50;13.60;;;;;;;6.37;71.19;102049.78;5010596;28;20084;-45
2023/12/07 03:25:57;;;;;;;26.88;13.30;;;;;;;6.42;70.83;102050.00;5010404;28;20037;-44
2023/12/07 03:28:22;;;;;;;29.48;14.27;;;;;;;6.38;71.41;102055.84;5011154;28;20471;-49
2023/12/07 03:30:47;;;;;;;28.15;13.68;;;;;;;6.40;71.25;102059.44;5010426;28;20029;-44
2023/12/07 03:33:13;;;;;;;28.67;13.90;;;;;;;6.43;71.37;102059.56;5011736;28;20037;-45
2023/12/07 03:35:38;;;;;;;28.95;14.40;;;;;;;6.39;71.78;102058.53;5011637;28;20037;-45
2023/12/07 03:38:04;;;;;;;25.25;14.20;;;;;;;6.43;71.27;102060.44;5011375;28;20042;-44
2023/12/07 03:40:29;;;;;;;27.75;14.40;;;;;;;6.38;71.79;102063.63;5011540;28;20029;-46
2023/12/07 03:42:54;;;;;;;30.50;14.27;;;;;;;6.42;71.24;102061.25;5010066;28;20059;-45
2023/12/07 03:45:20;;;;;;;30.02;14.05;;;;;;;6.43;71.43;102055.28;5010748;28;20041;-45
2023/12/07 03:47:45;;;;;;;26.90;14.43;;;;;;;6.43;71.09;102051.78;5010607;28;20520;-47
2023/12/07 03:50:10;;;;;;;29.52;14.73;;;;;;;6.40;70.87;102047.34;5010394;28;20108;-43
2023/12/07 03:52:36;;;;;;;34.78;15.20;;;;;;;6.30;71.10;102049.41;5009067;28;20041;-48
2023/12/07 03:55:01;;;;;;;32.85;15.70;;;;;;;6.32;71.26;102046.09;5009959;28;20030;-44
2023/12/07 03:57:26;;;;;;;30.67;15.88;;;;;;;6.25;71.39;102043.13;5010450;28;20040;-44
2023/12/07 03:59:53;;;;;;;32.38;15.80;;;;;;;6.27;71.01;102049.28;5009996;28;20091;-44
2023/12/07 04:02:19;;;;;;;30.67;15.57;;;;;;;6.24;71.11;102056.88;5010285;28;20054;-44
2023/12/07 04:04:44;;;;;;;29.63;15.88;;;;;;;6.18;71.24;102054.88;5010582;28;20066;-46
2023/12/07 04:07:10;;;;;;;31.25;15.95;;;;;;;6.18;70.96;102057.47;5009978;28;20041;-46
2023/12/07 04:09:35;;;;;;;36.47;17.05;;;;;;;6.11;71.36;102055.38;5010705;28;20033;-44
2023/12/07 04:12:01;;;;;;;35.08;17.77;;;;;;;6.07;71.85;102053.44;5008374;28;20054;-46
2023/12/07 04:14:26;;;;;;;36.20;17.65;;;;;;;6.08;71.04;102047.47;5010464;28;20037;-51
2023/12/07 04:16:51;;;;;;;39.47;18.50;;;;;;;6.05;71.06;102053.38;5009707;28;20065;-46
2023/12/07 04:19:17;;;;;;;37.58;17.92;;;;;;;6.08;70.66;102050.94;5010643;28;20492;-45
2023/12/07 04:21:42;;;;;;;36.15;18.50;;;;;;;6.02;70.53;102055.81;5010467;28;20030;-44
2023/12/07 04:24:07;;;;;;;40.45;19.13;;;;;;;6.04;70.54;102043.81;5009882;28;20037;-43
2023/12/07 04:26:32;;;;;;;40.00;20.88;;;;;;;5.94;71.13;102043.28;5010581;28;20412;-48
2023/12/07 04:28:58;;;;;;;37.38;20.05;;;;;;;5.90;71.01;102039.66;5010347;28;20042;-45
2023/12/07 04:31:23;;;;;;;40.90;20.35;;;;;;;5.94;71.17;102044.19;5010298;28;20441;-45
2023/12/07 04:33:48;;;;;;;41.65;21.38;;;;;;;5.86;71.04;102041.97;5009567;28;20050;-45
2023/12/07 04:36:14;;;;;;;41.63;20.20;;;;;;;5.88;71.13;102037.81;5010100;28;20041;-44
2023/12/07 04:38:40;;;;;;;46.15;20.25;;;;;;;5.90;70.79;102037.09;5009123;28;20460;-49
2023/12/07 04:41:05;;;;;;;41.70;21.00;;;;;;;5.89;70.53;102037.88;5009619;28;20432;-49
2023/12/07 04:43:30;;;;;;;39.90;20.08;;;;;;;5.87;70.49;102031.72;5010275;28;20034;-44
2023/12/07 04:45:56;;;;;;;41.47;19.70;;;;;;;5.77;70.90;102041.50;5010137;28;20455;-47
2023/12/07 04:48:21;;;;;;;36.33;18.90;;;;;;;5.79;70.73;102038.22;5014019;28;20049;-45
2023/12/07 04:50:46;;;;;;;41.63;19.75;;;;;;;5.78;70.46;102043.28;5013408;28;20064;-46
2023/12/07 04:53:11;;;;;;;38.55;18.30;;;;;;;5.78;70.47;102046.78;5014474;28;20381;-46
2023/12/07 04:55:37;;;;;;;34.95;19.02;;;;;;;5.78;70.38;102048.47;5014404;28;20034;-44
2023/12/07 04:58:02;;;;;;;38.90;18.88;;;;;;;5.57;70.99;102048.25;5013676;28;20038;-48
2023/12/07 05:00:28;;;;;;;39.25;19.30;;;;;;;5.65;71.02;102053.00;5014448;28;20030;-44
2023/12/07 05:02:53;;;;;;;40.17;19.05;;;;;;;5.72;71.16;102054.22;5013508;28;20042;-44
2023/12/07 05:05:18;;;;;;;44.83;21.50;;;;;;;5.70;70.81;102046.38;5013608;28;20069;-50
2023/12/07 05:07:44;;;;;;;54.03;24.08;;;;;;;5.44;71.70;102051.00;5014207;28;20036;-46
2023/12/07 05:10:10;;;;;;;58.17;23.98;;;;;;;5.41;71.20;102043.97;5013981;28;20121;-44
2023/12/07 05:12:35;;;;;;;53.22;23.25;;;;;;;5.53;71.36;102052.38;5014992;28;20045;-44
2023/12/07 05:15:02;;;;;;;57.33;23.40;;;;;;;5.54;71.20;102049.00;5013371;28;20034;-47
2023/12/07 05:17:28;;;;;;;83.35;23.27;;;;;;;5.44;71.32;102048.41;5013722;28;20572;-44
2023/12/07 05:19:53;;;;;;;83.00;22.65;;;;;;;5.18;71.68;102040.19;5013684;28;20041;-45
2023/12/07 05:22:18;;;;;;;97.05;22.08;;;;;;;5.26;71.64;102043.16;5014552;28;20070;-45
2023/12/07 05:24:44;;;;;;;42.88;19.25;;;;;;;5.38;71.65;102045.50;5013896;28;20033;-47
2023/12/07 05:27:09;;;;;;;49.75;19.63;;;;;;;5.46;71.15;102039.03;5013004;28;20107;-50
2023/12/07 05:29:34;;;;;;;52.50;19.85;;;;;;;5.49;71.05;102040.06;5013419;28;20530;-46
2023/12/07 05:31:59;;;;;;;82.75;20.65;;;;;;;5.39;71.29;102035.22;5012752;28;20040;-45
2023/12/07 05:34:25;;;;;;;52.67;19.35;;;;;;;5.38;71.43;102033.44;5013656;28;20034;-48
2023/12/07 05:36:50;;;;;;;50.50;19.08;;;;;;;5.40;71.49;102030.97;5013109;28;20128;-47
2023/12/07 05:39:17;;;;;;;53.17;19.60;;;;;;;5.49;71.40;102034.91;5013312;28;20378;-48
2023/12/07 05:41:43;;;;;;;58.85;19.92;;;;;;;5.54;71.13;102027.41;5013408;28;20032;-46
2023/12/07 05:44:08;;;;;;;50.60;19.60;;;;;;;5.44;71.25;102026.00;5013056;28;20471;-46
2023/12/07 05:46:35;;;;;;;61.28;19.52;;;;;;;5.44;71.16;102019.94;5012789;28;20030;-46
2023/12/07 05:49:00;;;;;;;70.63;17.77;;;;;;;5.47;71.25;102025.31;5012987;28;20398;-43
2023/12/07 05:51:26;;;;;;;41.95;17.30;;;;;;;5.56;71.31;102016.31;5012931;28;20096;-48
2023/12/07 05:53:52;;;;;;;60.05;17.00;;;;;;;5.37;71.34;102023.91;5012818;28;20052;-48
2023/12/07 05:56:21;;;;;;;46.75;17.40;;;;;;;5.45;71.16;102025.22;5013592;28;20488;-46
2023/12/07 05:58:47;;;;;;;47.65;16.17;;;;;;;5.40;72.03;102018.03;5012205;28;20034;-45
2023/12/07 06:01:17;;;;;;;60.10;18.50;;;;;;;5.36;71.79;102021.28;5013097;28;20034;-47
2023/12/07 06:03:42;;;;;;;47.00;18.40;;;;;;;5.44;71.53;102020.84;5012969;28;20037;-46
2023/12/07 06:06:10;;;;;;;47.65;18.25;;;;;;;5.50;71.33;102021.16;5012740;28;20460;-45
2023/12/07 06:08:36;;;;;;;52.13;19.98;;;;;;;5.50;71.43;102018.56;5012890;28;20056;-47
2023/12/07 06:11:02;;;;;;;51.83;19.17;;;;;;;5.56;71.64;102024.06;5012834;28;20033;-44
2023/12/07 06:13:27;;;;;;;74.03;19.65;;;;;;;5.39;71.87;102031.75;5013428;28;20042;-49
2023/12/07 06:15:52;;;;;;;50.38;19.13;;;;;;;5.60;71.23;102032.91;5012864;28;20076;-46
2023/12/07 06:18:17;;;;;;;61.42;18.98;;;;;;;5.34;71.18;102031.53;5012302;28;20030;-47
2023/12/07 06:20:43;;;;;;;41.65;17.08;;;;;;;5.50;71.73;102035.78;5012716;28;20041;-46
2023/12/07 06:23:12;;;;;;;40.33;17.27;;;;;;;5.48;71.08;102033.16;5010587;28;20030;-45
2023/12/07 06:25:38;;;;;;;39.03;16.55;;;;;;;5.41;71.21;102025.88;5010790;28;20030;-49
2023/12/07 06:28:07;;;;;;;39.30;16.17;;;;;;;5.14;71.92;102030.47;5011393;28;20038;-50
2023/12/07 06:30:32;;;;;;;38.97;16.08;;;;;;;5.40;71.30;102031.84;5011913;28;20041;-49
2023/12/07 06:32:57;;;;;;;38.35;15.57;;;;;;;5.39;71.40;102031.75;5011649;28;20455;-45
2023/12/07 06:35:23;;;;;;;39.28;15.20;;;;;;;5.40;70.73;102029.25;5011891;28;20057;-46
2023/12/07 06:37:48;;;;;;;36.08;14.55;;;;;;;5.16;71.03;102026.28;5010184;28;20119;-49
2023/12/07 06:40:14;;;;;;;36.67;14.38;;;;;;;5.47;71.02;102013.25;5011917;28;20284;-45
2023/12/07 06:42:39;;;;;;;38.40;14.05;;;;;;;5.40;70.51;102021.50;5010621;28;20034;-48
2023/12/07 06:45:05;;;;;;;33.78;13.77;;;;;;;5.62;70.14;102023.50;5011197;28;20034;-48
2023/12/07 06:47:31;;;;;;;35.83;14.27;;;;;;;5.76;69.60;102022.50;5011903;28;20042;-50
2023/12/07 06:49:56;;;;;;;36.75;14.63;;;;;;;5.80;69.37;102019.25;5011288;28;20052;-44
2023/12/07 06:52:22;;;;;;;34.88;13.35;;;;;;;5.78;69.57;102028.66;5011789;28;20128;-45
2023/12/07 06:54:47;;;;;;;37.72;13.60;;;;;;;5.58;70.12;102029.31;5010739;28;20127;-46
2023/12/07 06:57:13;;;;;;;37.28;14.23;;;;;;;4.89;71.68;102023.06;5011468;28;20034;-45
2023/12/07 06:59:38;;;;;;;37.17;13.90;;;;;;;5.26;72.29;102025.94;5011473;28;20117;-44
2023/12/07 07:02:03;;;;;;;39.50;15.23;;;;;;;5.32;71.97;102025.38;5011016;28;20038;-48
2023/12/07 07:04:29;;;;;;;41.28;15.10;;;;;;;5.46;71.37;102027.00;5011616;28;20038;-46
2023/12/07 07:06:55;;;;;;;42.97;15.90;;;;;;;5.53;70.54;102026.50;5011153;28;20044;-45
2023/12/07 07:09:20;;;;;;;42.08;14.98;;;;;;;5.19;72.39;102021.25;5011326;28;20058;-44
2023/12/07 07:11:49;;;;;;;43.70;13.55;;;;;;;5.35;71.48;102022.06;5011091;28;20034;-47
2023/12/07 07:14:15;;;;;;;39.22;13.15;;;;;;;5.24;72.05;102021.50;5022812;28;20034;-44
2023/12/07 07:16:41;;;;;;;44.30;13.52;;;;;;;5.24;72.48;102027.59;5030807;28;20141;-50
2023/12/07 07:19:07;;;;;;;36.55;12.50;;;;;;;5.53;70.68;102023.94;5030657;28;20484;-47
2023/12/07 07:21:33;;;;;;;43.33;12.93;;;;;;;5.63;70.46;102018.41;5029221;28;20037;-45
2023/12/07 07:23:59;;;;;;;37.42;12.23;;;;;;;5.36;71.26;102019.56;5030556;28;20033;-45
2023/12/07 07:26:25;;;;;;;38.22;11.50;;;;;;;5.27;72.44;102025.13;5031051;28;20029;-45
2023/12/07 07:28:53;;;;;;;29.88;10.27;;;;;;;5.73;70.45;102028.41;5029440;28;20034;-49
2023/12/07 07:31:19;;;;;;;28.52;9.88;;;;;;;5.79;70.58;102025.28;5031345;28;20030;-46
2023/12/07 07:33:46;;;;;;;28.92;9.70;;;;;;;5.55;71.60;102027.47;5032078;28;20373;-45
2023/12/07 07:36:12;;;;;;;35.25;11.48;;;;;;;5.54;71.45;102017.94;5031770;28;20510;-44
2023/12/07 07:38:38;;;;;;;28.42;11.10;;;;;;;5.27;71.84;102016.50;5031639;28;20029;-44
2023/12/07 07:41:03;;;;;;;37.63;12.40;;;;;;;5.25;72.23;102013.81;5030079;28;20090;-46
2023/12/07 07:43:29;;;;;;;33.80;11.18;;;;;;;5.39;72.30;102014.56;5030883;28;20056;-46
2023/12/07 07:45:55;;;;;;;33.80;11.32;;;;;;;5.61;71.39;102019.16;5030081;28;20044;-47
2023/12/07 07:48:20;;;;;;;36.30;11.82;;;;;;;5.80;70.69;102028.72;5030330;28;20037;-45
2023/12/07 07:50:45;;;;;;;35.55;11.50;;;;;;;5.50;71.67;102034.09;5030149;28;20113;-47
2023/12/07 07:53:10;;;;;;;34.67;11.82;;;;;;;5.60;71.55;102022.53;5029818;28;20037;-45
2023/12/07 07:55:36;;;;;;;41.95;12.90;;;;;;;5.63;71.66;102027.88;5030133;28;20026;-47
2023/12/07 07:58:01;;;;;;;40.10;11.20;;;;;;;5.32;72.18;102034.03;5029946;28;20045;-49
2023/12/07 08:00:28;;;;;;;30.42;11.57;;;;;;;5.79;71.15;102029.56;5030247;28;20029;-47
2023/12/07 08:02:53;;;;;;;35.13;12.15;;;;;;;5.85;71.21;102027.28;5029934;28;20500;-45
2023/12/07 08:05:18;;;;;;;34.03;11.95;;;;;;;5.65;72.03;102021.97;5029911;28;20029;-45
2023/12/07 08:07:44;;;;;;;32.83;11.95;;;;;;;5.53;72.38;102039.44;5028812;28;20038;-50
2023/12/07 08:10:09;;;;;;;35.38;12.57;;;;;;;5.64;72.47;102034.81;5029499;28;20060;-45
2023/12/07 08:12:35;;;;;;;34.15;11.75;;;;;;;5.76;71.51;102034.56;5030238;28;20033;-45
2023/12/07 08:15:01;;;;;;;33.28;12.93;;;;;;;5.92;71.33;102032.84;5030028;28;20044;-48
2023/12/07 08:17:26;;;;;;;30.33;11.82;;;;;;;6.08;70.83;102034.53;5030484;28;20053;-52
2023/12/07 08:19:52;;;;;;;32.35;12.15;;;;;;;6.16;70.88;102037.50;5029489;28;20115;-45
2023/12/07 08:22:17;;;;;;;30.60;11.48;;;;;;;5.97;70.86;102035.69;5029968;28;20036;-44
2023/12/07 08:24:43;;;;;;;38.35;12.10;;;;;;;5.81;71.82;102025.31;5030778;28;20040;-47
2023/12/07 08:27:08;;;;;;;39.22;11.30;;;;;;;5.91;71.76;102025.91;5029899;28;20484;-45
2023/12/07 08:29:34;;;;;;;30.80;11.93;;;;;;;5.92;71.39;102030.25;5030037;28;20484;-48
2023/12/07 08:31:59;;;;;;;35.15;12.55;;;;;;;6.14;70.82;102021.00;5029248;28;20037;-47
2023/12/07 08:34:25;;;;;;;29.25;12.02;;;;;;;5.84;71.97;102021.22;5029930;28;20026;-51
2023/12/07 08:36:50;;;;;;;39.63;12.77;;;;;;;6.01;71.48;102010.03;5029424;28;20136;-47
2023/12/07 08:39:16;;;;;;;37.33;12.65;;;;;;;5.96;71.81;102014.09;5030132;28;20553;-48
2023/12/07 08:41:41;;;;;;;32.45;11.77;;;;;;;5.97;71.77;102012.41;5029711;28;20033;-51
2023/12/07 08:44:06;;;;;;;37.55;12.35;;;;;;;6.00;71.31;102002.19;5029125;28;20061;-46
2023/12/07 08:46:31;;;;;;;39.30;11.82;;;;;;;6.01;71.02;102001.38;5028359;28;20029;-47
2023/12/07 08:48:57;;;;;;;35.72;12.20;;;;;;;6.39;70.34;102005.84;5029438;28;20044;-45
2023/12/07 08:51:23;;;;;;;47.25;13.40;;;;;;;6.22;71.26;101993.78;5029465;28;20030;-45
2023/12/07 08:53:49;;;;;;;37.60;12.88;;;;;;;5.82;72.83;102002.13;5029898;28;20022;-47
2023/12/07 08:56:15;;;;;;;43.33;12.80;;;;;;;6.07;71.95;101996.50;5029944;28;20403;-45
2023/12/07 08:58:41;;;;;;;37.00;12.20;;;;;;;6.05;71.97;102005.88;5029905;28;20385;-49
2023/12/07 09:01:06;;;;;;;41.67;13.05;;;;;;;6.42;70.51;102008.56;5029741;28;20499;-48
2023/12/07 09:03:32;;;;;;;33.78;11.98;;;;;;;6.34;70.38;102000.41;5030133;28;20473;-45
2023/12/07 09:05:59;;;;;;;41.33;12.48;;;;;;;6.33;70.53;102008.13;5029058;28;20041;-44
2023/12/07 09:08:24;;;;;;;31.20;11.30;;;;;;;6.59;70.74;102011.97;5030003;28;20117;-46
2023/12/07 09:10:51;;;;;;;36.97;12.52;;;;;;;6.61;70.68;102015.50;5029751;28;20137;-46
2023/12/07 09:13:19;;;;;;;36.95;11.65;;;;;;;6.53;70.60;102009.09;5029226;28;20041;-45
2023/12/07 09:15:44;;;;;;;37.53;11.90;;;;;;;6.16;72.52;102006.44;5030370;28;20029;-44
2023/12/07 09:18:13;;;;;;;38.70;12.00;;;;;;;6.35;71.12;102003.91;5029546;28;20037;-44
2023/12/07 09:20:45;;;;;;;35.17;11.55;;;;;;;6.66;70.68;102012.31;5030605;28;20061;-45
2023/12/07 09:23:17;;;;;;;40.63;11.75;;;;;;;6.39;71.14;102005.84;5028969;28;20228;-46
2023/12/07 09:25:43;;;;;;;38.08;11.93;;;;;;;6.72;70.28;102002.25;5030045;28;20029;-47
2023/12/07 09:28:08;;;;;;;42.72;12.32;;;;;;;6.60;71.12;102001.66;5029241;28;20038;-50
2023/12/07 09:30:34;;;;;;;35.75;12.25;;;;;;;6.41;71.37;101991.25;5029443;28;20246;-48
2023/12/07 09:33:02;;;;;;;39.08;12.65;;;;;;;6.47;71.59;101987.25;5031021;28;20115;-48
2023/12/07 09:35:28;;;;;;;41.75;11.95;;;;;;;6.46;72.43;101987.19;5033132;28;20496;-47
2023/12/07 09:37:53;;;;;;;41.67;12.73;;;;;;;6.74;70.93;101971.22;5032884;28;20091;-48
2023/12/07 09:40:21;;;;;;;42.67;12.68;;;;;;;6.20;72.92;101962.63;5033682;28;20697;-46
2023/12/07 09:42:47;;;;;;;41.05;13.30;;;;;;;6.30;73.17;101964.84;5034190;28;20029;-45
2023/12/07 09:45:18;;;;;;;43.45;13.27;;;;;;;6.66;71.76;101963.09;5033056;28;20400;-45
2023/12/07 09:47:47;;;;;;;43.53;13.60;;;;;;;6.64;71.93;101958.66;5033288;28;20133;-46
2023/12/07 09:50:17;;;;;;;45.13;13.93;;;;;;;6.46;72.63;101954.38;5032105;28;20103;-45
2023/12/07 09:52:43;;;;;;;50.75;15.23;;;;;;;6.79;71.05;101955.06;5031513;28;20037;-46
2023/12/07 09:55:09;;;;;;;47.35;14.18;;;;;;;6.96;70.68;101952.34;5033056;28;20484;-47
2023/12/07 09:57:37;;;;;;;47.47;14.65;;;;;;;6.58;71.99;101951.50;5032766;28;20116;-46
2023/12/07 10:00:04;;;;;;;50.20;14.85;;;;;;;6.46;72.28;101949.19;5032030;28;20044;-47
2023/12/07 10:02:30;;;;;;;54.42;15.35;;;;;;;6.60;72.32;101944.66;5032517;28;20410;-46
2023/12/07 10:05:10;;;;;;;50.95;15.20;;;;;;;6.60;72.91;101949.84;5031742;28;20048;-45
2023/12/07 10:07:40;;;;;;;53.03;16.05;;;;;;;7.13;71.33;101959.19;5032702;28;20041;-46
2023/12/07 10:10:06;;;;;;;47.90;15.15;;;;;;;7.29;71.14;101952.16;5031933;28;20112;-45
2023/12/07 10:12:34;;;;;;;51.75;15.80;;;;;;;7.38;71.30;101948.19;5032409;28;20042;-47
2023/12/07 10:15:02;;;;;;;51.67;16.10;;;;;;;7.40;70.89;101947.41;5032095;28;20037;-45
2023/12/07 10:17:50;;;;;;;51.40;16.20;;;;;;;7.39;70.96;101942.16;5032659;28;20034;-45
2023/12/07 10:20:29;;;;;;;52.22;15.88;;;;;;;7.44;70.25;101935.47;5012131;28;20084;-47
2023/12/07 10:23:05;;;;;;;47.35;15.88;;;;;;;7.33;70.46;101943.66;5011599;28;20432;-45
2023/12/07 10:25:32;;;;;;;44.53;14.75;;;;;;;6.98;71.75;101940.34;5012590;28;20128;-44
2023/12/07 10:27:57;;;;;;;48.05;15.38;;;;;;;7.42;69.99;101935.41;5011867;28;20084;-46
2023/12/07 10:30:25;;;;;;;49.05;16.30;;;;;;;7.38;70.63;101930.03;5012199;28;20038;-45
2023/12/07 10:32:51;;;;;;;42.92;15.45;;;;;;;7.27;70.41;101925.25;5011722;28;20034;-45
2023/12/07 10:35:18;;;;;;;47.70;16.80;;;;;;;7.55;69.73;101924.72;5012284;28;20040;-47
2023/12/07 10:37:43;;;;;;;47.78;16.17;;;;;;;7.16;71.19;101908.34;5012079;28;20022;-46
2023/12/07 10:40:09;;;;;;;45.97;16.65;;;;;;;7.48;70.05;101906.25;5011291;28;20034;-46
2023/12/07 10:42:36;;;;;;;48.55;16.45;;;;;;;7.37;70.38;101904.91;5012012;28;20065;-46
2023/12/07 10:45:04;;;;;;;44.05;16.15;;;;;;;7.62;70.09;101894.72;5012035;28;20037;-46
2023/12/07 10:47:32;;;;;;;45.92;17.15;;;;;;;7.71;69.86;101895.09;5012648;28;20117;-46
2023/12/07 10:50:01;;;;;;;47.25;16.77;;;;;;;7.48;70.63;101888.97;5011531;28;20471;-44
2023/12/07 10:52:31;;;;;;;45.47;16.63;;;;;;;7.46;70.21;101874.13;5012029;28;20492;-46
2023/12/07 10:55:07;;;;;;;47.97;16.55;;;;;;;7.24;70.94;101875.84;5011549;28;20492;-47
2023/12/07 10:57:38;;;;;;;46.38;16.20;;;;;;;7.34;70.68;101877.09;5012708;28;20113;-45
2023/12/07 11:00:07;;;;;;;41.42;15.55;;;;;;;7.15;71.34;101880.63;5012749;28;20125;-45
2023/12/07 11:02:33;;;;;;;42.65;16.15;;;;;;;7.80;69.12;101868.63;5013079;28;20038;-45
2023/12/07 11:05:00;;;;;;;37.15;14.88;;;;;;;7.79;68.42;101862.56;5011595;28;20037;-47
2023/12/07 11:07:37;;;;;;;42.70;15.52;;;;;;;7.48;70.27;101852.63;5011829;28;20027;-46
2023/12/07 11:10:46;;;;;;;42.63;15.73;;;;;;;7.54;69.80;101862.38;5015028;28;20034;-46
2023/12/07 11:13:18;;;;;;;37.78;16.10;;;;;;;7.80;68.39;101855.66;5019436;28;20060;-47
2023/12/07 11:15:44;;;;;;;38.08;15.63;;;;;;;7.55;69.56;101862.44;5012870;28;20029;-48